sensor_id;sensor_type;location;lat;lon;timestamp;temperature;humidity
29547;DHT22;40782;47.264;11.330;2023-11-25T00:00:21;1.40;99.90
29547;DHT22;40782;47.264;11.330;2023-11-25T00:02:50;1.40;99.90
29547;DHT22;40782;47.264;11.330;2023-11-25T00:05:18;1.40;99.90
29547;DHT22;40782;47.264;11.330;2023-11-25T00:07:45;1.40;99.90
29547;DHT22;40782;47.264;11.330;2023-11-25T00:10:12;1.40;99.90
29547;DHT22;40782;47.264;11.330;2023-11-25T00:12:39;1.40;99.90
29547;DHT22;40782;47.264;11.330;2023-11-25T00:15:06;1.50;99.90
29547;DHT22;40782;47.264;11.330;2023-11-25T00:17:34;1.50;99.90
29547;DHT22;40782;47.264;11.330;2023-11-25T00:20:02;1.50;99.90
29547;DHT22;40782;47.264;11.330;2023-11-25T00:22:30;1.50;99.90
29547;DHT22;40782;47.264;11.330;2023-11-25T00:24:57;1.50;99.90
29547;DHT22;40782;47.264;11.330;2023-11-25T00:27:24;1.50;99.90
29547;DHT22;40782;47.264;11.330;2023-11-25T00:29:51;1.40;99.90
29547;DHT22;40782;47.264;11.330;2023-11-25T00:32:18;1.30;99.90
29547;DHT22;40782;47.264;11.330;2023-11-25T00:34:45;1.30;99.90
29547;DHT22;40782;47.264;11.330;2023-11-25T00:37:14;1.30;99.90
29547;DHT22;40782;47.264;11.330;2023-11-25T00:39:41;1.30;99.90
29547;DHT22;40782;47.264;11.330;2023-11-25T00:42:08;1.30;99.90
29547;DHT22;40782;47.264;11.330;2023-11-25T00:44:36;1.20;99.90
29547;DHT22;40782;47.264;11.330;2023-11-25T00:47:03;1.20;99.90
29547;DHT22;40782;47.264;11.330;2023-11-25T00:49:36;1.20;99.90
29547;DHT22;40782;47.264;11.330;2023-11-25T00:52:04;1.20;99.90
29547;DHT22;40782;47.264;11.330;2023-11-25T00:54:31;1.20;99.90
29547;DHT22;40782;47.264;11.330;2023-11-25T00:56:59;1.30;99.90
29547;DHT22;40782;47.264;11.330;2023-11-25T00:59:27;1.30;99.90
29547;DHT22;40782;47.264;11.330;2023-11-25T01:01:54;1.30;99.90
29547;DHT22;40782;47.264;11.330;2023-11-25T01:04:21;1.30;99.90
29547;DHT22;40782;47.264;11.330;2023-11-25T01:06:48;1.30;99.90
29547;DHT22;40782;47.264;11.330;2023-11-25T01:09:15;1.30;99.90
29547;DHT22;40782;47.264;11.330;2023-11-25T01:11:45;1.40;99.90
29547;DHT22;40782;47.264;11.330;2023-11-25T01:14:12;1.30;99.90
29547;DHT22;40782;47.264;11.330;2023-11-25T01:16:39;1.20;99.90
29547;DHT22;40782;47.264;11.330;2023-11-25T01:19:06;1.10;99.90
29547;DHT22;40782;47.264;11.330;2023-11-25T01:21:33;1.00;99.90
29547;DHT22;40782;47.264;11.330;2023-11-25T01:24:00;0.90;99.90
29547;DHT22;40782;47.264;11.330;2023-11-25T01:26:27;0.90;99.90
29547;DHT22;40782;47.264;11.330;2023-11-25T01:28:55;0.80;99.90
29547;DHT22;40782;47.264;11.330;2023-11-25T01:31:22;0.80;99.90
29547;DHT22;40782;47.264;11.330;2023-11-25T01:33:49;0.80;99.90
29547;DHT22;40782;47.264;11.330;2023-11-25T01:36:16;0.80;99.90
29547;DHT22;40782;47.264;11.330;2023-11-25T01:38:42;0.90;99.90
29547;DHT22;40782;47.264;11.330;2023-11-25T01:41:09;0.90;99.90
29547;DHT22;40782;47.264;11.330;2023-11-25T01:43:36;1.00;99.90
29547;DHT22;40782;47.264;11.330;2023-11-25T01:46:05;1.00;99.90
29547;DHT22;40782;47.264;11.330;2023-11-25T01:48:32;1.10;99.90
29547;DHT22;40782;47.264;11.330;2023-11-25T01:51:00;1.10;99.90
29547;DHT22;40782;47.264;11.330;2023-11-25T01:53:28;1.10;99.90
29547;DHT22;40782;47.264;11.330;2023-11-25T01:55:55;1.10;99.90
29547;DHT22;40782;47.264;11.330;2023-11-25T01:58:22;1.10;99.90
29547;DHT22;40782;47.264;11.330;2023-11-25T02:00:49;1.10;99.90
29547;DHT22;40782;47.264;11.330;2023-11-25T02:03:18;1.20;99.90
29547;DHT22;40782;47.264;11.330;2023-11-25T02:05:45;1.20;99.90
29547;DHT22;40782;47.264;11.330;2023-11-25T02:08:12;1.30;99.90
29547;DHT22;40782;47.264;11.330;2023-11-25T02:10:39;1.30;99.90
29547;DHT22;40782;47.264;11.330;2023-11-25T02:13:06;1.30;99.90
29547;DHT22;40782;47.264;11.330;2023-11-25T02:15:34;1.30;99.90
29547;DHT22;40782;47.264;11.330;2023-11-25T02:18:01;1.40;99.90
29547;DHT22;40782;47.264;11.330;2023-11-25T02:20:32;1.60;99.90
29547;DHT22;40782;47.264;11.330;2023-11-25T02:23:02;1.60;99.90
29547;DHT22;40782;47.264;11.330;2023-11-25T02:25:30;1.70;99.90
29547;DHT22;40782;47.264;11.330;2023-11-25T02:27:57;1.70;99.90
29547;DHT22;40782;47.264;11.330;2023-11-25T02:30:24;1.60;99.90
29547;DHT22;40782;47.264;11.330;2023-11-25T02:32:52;1.50;99.90
29547;DHT22;40782;47.264;11.330;2023-11-25T02:35:19;1.30;99.90
29547;DHT22;40782;47.264;11.330;2023-11-25T02:37:46;1.20;99.90
29547;DHT22;40782;47.264;11.330;2023-11-25T02:40:15;0.90;99.90
29547;DHT22;40782;47.264;11.330;2023-11-25T02:42:43;0.70;99.90
29547;DHT22;40782;47.264;11.330;2023-11-25T02:45:14;0.60;99.90
29547;DHT22;40782;47.264;11.330;2023-11-25T02:47:44;0.60;99.90
29547;DHT22;40782;47.264;11.330;2023-11-25T02:50:11;0.60;99.90
29547;DHT22;40782;47.264;11.330;2023-11-25T02:52:38;0.60;99.90
29547;DHT22;40782;47.264;11.330;2023-11-25T02:55:06;0.70;99.90
29547;DHT22;40782;47.264;11.330;2023-11-25T02:57:37;0.80;99.90
29547;DHT22;40782;47.264;11.330;2023-11-25T03:00:09;0.80;99.90
29547;DHT22;40782;47.264;11.330;2023-11-25T03:02:42;0.80;99.90
29547;DHT22;40782;47.264;11.330;2023-11-25T03:05:10;0.70;99.90
29547;DHT22;40782;47.264;11.330;2023-11-25T03:07:38;0.80;99.90
29547;DHT22;40782;47.264;11.330;2023-11-25T03:10:06;0.80;99.90
29547;DHT22;40782;47.264;11.330;2023-11-25T03:12:34;0.90;99.90
29547;DHT22;40782;47.264;11.330;2023-11-25T03:15:03;0.90;99.90
29547;DHT22;40782;47.264;11.330;2023-11-25T03:17:30;1.00;99.90
29547;DHT22;40782;47.264;11.330;2023-11-25T03:19:57;1.00;99.90
29547;DHT22;40782;47.264;11.330;2023-11-25T03:22:24;1.10;99.90
29547;DHT22;40782;47.264;11.330;2023-11-25T03:24:52;1.10;99.90
29547;DHT22;40782;47.264;11.330;2023-11-25T03:27:19;1.20;99.90
29547;DHT22;40782;47.264;11.330;2023-11-25T03:29:46;1.20;99.90
29547;DHT22;40782;47.264;11.330;2023-11-25T03:32:14;1.20;99.90
29547;DHT22;40782;47.264;11.330;2023-11-25T03:34:41;1.20;99.90
29547;DHT22;40782;47.264;11.330;2023-11-25T03:37:08;1.10;99.90
29547;DHT22;40782;47.264;11.330;2023-11-25T03:39:35;1.20;99.90
29547;DHT22;40782;47.264;11.330;2023-11-25T03:42:03;1.20;99.90
29547;DHT22;40782;47.264;11.330;2023-11-25T03:44:30;1.10;99.90
29547;DHT22;40782;47.264;11.330;2023-11-25T03:46:57;1.10;99.90
29547;DHT22;40782;47.264;11.330;2023-11-25T03:49:25;1.10;99.90
29547;DHT22;40782;47.264;11.330;2023-11-25T03:51:52;1.00;99.90
29547;DHT22;40782;47.264;11.330;2023-11-25T03:54:20;1.00;99.90
29547;DHT22;40782;47.264;11.330;2023-11-25T03:56:47;1.00;99.90
29547;DHT22;40782;47.264;11.330;2023-11-25T03:59:14;1.10;99.90
29547;DHT22;40782;47.264;11.330;2023-11-25T04:01:41;1.10;99.90
29547;DHT22;40782;47.264;11.330;2023-11-25T04:04:09;1.30;99.90
29547;DHT22;40782;47.264;11.330;2023-11-25T04:06:38;1.40;99.90
29547;DHT22;40782;47.264;11.330;2023-11-25T04:09:05;1.50;99.90
29547;DHT22;40782;47.264;11.330;2023-11-25T04:11:32;1.60;99.90
29547;DHT22;40782;47.264;11.330;2023-11-25T04:14:00;1.60;99.90
29547;DHT22;40782;47.264;11.330;2023-11-25T04:16:27;1.70;99.90
29547;DHT22;40782;47.264;11.330;2023-11-25T04:18:54;1.70;99.90
29547;DHT22;40782;47.264;11.330;2023-11-25T04:21:20;1.70;99.90
29547;DHT22;40782;47.264;11.330;2023-11-25T04:26:19;1.80;99.90
29547;DHT22;40782;47.264;11.330;2023-11-25T04:28:46;1.80;99.90
29547;DHT22;40782;47.264;11.330;2023-11-25T04:31:16;1.80;99.90
29547;DHT22;40782;47.264;11.330;2023-11-25T04:33:43;1.70;99.90
29547;DHT22;40782;47.264;11.330;2023-11-25T04:36:10;1.70;99.90
29547;DHT22;40782;47.264;11.330;2023-11-25T04:38:37;1.60;99.90
29547;DHT22;40782;47.264;11.330;2023-11-25T04:41:04;1.60;99.90
29547;DHT22;40782;47.264;11.330;2023-11-25T04:43:32;1.60;99.90
29547;DHT22;40782;47.264;11.330;2023-11-25T04:46:00;1.60;99.90
29547;DHT22;40782;47.264;11.330;2023-11-25T04:48:29;1.60;99.90
29547;DHT22;40782;47.264;11.330;2023-11-25T04:50:56;1.50;99.90
29547;DHT22;40782;47.264;11.330;2023-11-25T04:53:23;1.10;99.90
29547;DHT22;40782;47.264;11.330;2023-11-25T04:55:50;0.90;99.90
29547;DHT22;40782;47.264;11.330;2023-11-25T04:58:16;0.80;99.90
29547;DHT22;40782;47.264;11.330;2023-11-25T05:00:45;0.70;99.90
29547;DHT22;40782;47.264;11.330;2023-11-25T05:03:12;0.70;99.90
29547;DHT22;40782;47.264;11.330;2023-11-25T05:05:39;0.70;99.90
29547;DHT22;40782;47.264;11.330;2023-11-25T05:08:06;0.60;99.90
29547;DHT22;40782;47.264;11.330;2023-11-25T05:10:33;0.20;99.90
29547;DHT22;40782;47.264;11.330;2023-11-25T05:13:00;0.10;99.90
29547;DHT22;40782;47.264;11.330;2023-11-25T05:15:27;0.10;99.90
29547;DHT22;40782;47.264;11.330;2023-11-25T05:17:56;0.20;99.90
29547;DHT22;40782;47.264;11.330;2023-11-25T05:20:22;0.30;99.90
29547;DHT22;40782;47.264;11.330;2023-11-25T05:22:49;0.30;99.90
29547;DHT22;40782;47.264;11.330;2023-11-25T05:25:16;0.30;99.90
29547;DHT22;40782;47.264;11.330;2023-11-25T05:27:43;0.50;99.90
29547;DHT22;40782;47.264;11.330;2023-11-25T05:30:10;0.70;99.90
29547;DHT22;40782;47.264;11.330;2023-11-25T05:32:39;0.80;99.90
29547;DHT22;40782;47.264;11.330;2023-11-25T05:35:07;0.90;99.90
29547;DHT22;40782;47.264;11.330;2023-11-25T05:37:35;1.00;99.90
29547;DHT22;40782;47.264;11.330;2023-11-25T05:40:02;1.00;99.90
29547;DHT22;40782;47.264;11.330;2023-11-25T05:42:31;1.00;99.90
29547;DHT22;40782;47.264;11.330;2023-11-25T05:45:03;1.00;99.90
29547;DHT22;40782;47.264;11.330;2023-11-25T05:47:30;1.10;99.90
29547;DHT22;40782;47.264;11.330;2023-11-25T05:49:57;1.10;99.90
29547;DHT22;40782;47.264;11.330;2023-11-25T05:52:26;1.10;99.90
29547;DHT22;40782;47.264;11.330;2023-11-25T05:54:52;1.00;99.90
29547;DHT22;40782;47.264;11.330;2023-11-25T05:57:21;0.90;99.90
29547;DHT22;40782;47.264;11.330;2023-11-25T05:59:48;1.00;99.90
29547;DHT22;40782;47.264;11.330;2023-11-25T06:02:15;0.90;99.90
29547;DHT22;40782;47.264;11.330;2023-11-25T06:04:41;0.80;99.90
29547;DHT22;40782;47.264;11.330;2023-11-25T06:07:09;0.80;99.90
29547;DHT22;40782;47.264;11.330;2023-11-25T06:09:37;0.80;99.90
29547;DHT22;40782;47.264;11.330;2023-11-25T06:12:05;0.80;99.90
29547;DHT22;40782;47.264;11.330;2023-11-25T06:14:34;0.80;99.90
29547;DHT22;40782;47.264;11.330;2023-11-25T06:17:03;0.80;99.90
29547;DHT22;40782;47.264;11.330;2023-11-25T06:19:32;0.70;99.90
29547;DHT22;40782;47.264;11.330;2023-11-25T06:21:59;0.60;99.90
29547;DHT22;40782;47.264;11.330;2023-11-25T06:24:29;0.60;99.90
29547;DHT22;40782;47.264;11.330;2023-11-25T06:26:57;0.60;99.90
29547;DHT22;40782;47.264;11.330;2023-11-25T06:29:24;0.60;99.90
29547;DHT22;40782;47.264;11.330;2023-11-25T06:31:51;0.50;99.90
29547;DHT22;40782;47.264;11.330;2023-11-25T06:34:18;0.50;99.90
29547;DHT22;40782;47.264;11.330;2023-11-25T06:36:45;0.50;99.90
29547;DHT22;40782;47.264;11.330;2023-11-25T06:39:12;0.50;99.90
29547;DHT22;40782;47.264;11.330;2023-11-25T06:41:41;0.40;99.90
29547;DHT22;40782;47.264;11.330;2023-11-25T06:44:12;0.40;99.90
29547;DHT22;40782;47.264;11.330;2023-11-25T06:46:39;0.40;99.90
29547;DHT22;40782;47.264;11.330;2023-11-25T06:49:06;0.30;99.90
29547;DHT22;40782;47.264;11.330;2023-11-25T06:51:33;0.20;99.90
29547;DHT22;40782;47.264;11.330;2023-11-25T06:54:00;0.10;99.90
29547;DHT22;40782;47.264;11.330;2023-11-25T06:56:26;0.10;99.90
29547;DHT22;40782;47.264;11.330;2023-11-25T06:58:53;0.00;99.90
29547;DHT22;40782;47.264;11.330;2023-11-25T07:01:22;0.00;99.90
29547;DHT22;40782;47.264;11.330;2023-11-25T07:03:49;0.00;99.90
29547;DHT22;40782;47.264;11.330;2023-11-25T07:06:16;0.00;99.90
29547;DHT22;40782;47.264;11.330;2023-11-25T07:08:43;0.00;99.90
29547;DHT22;40782;47.264;11.330;2023-11-25T07:11:10;0.00;99.90
29547;DHT22;40782;47.264;11.330;2023-11-25T07:13:39;0.00;99.90
29547;DHT22;40782;47.264;11.330;2023-11-25T07:16:07;0.00;99.90
29547;DHT22;40782;47.264;11.330;2023-11-25T07:18:35;-0.10;99.90
29547;DHT22;40782;47.264;11.330;2023-11-25T07:21:08;0.00;99.90
29547;DHT22;40782;47.264;11.330;2023-11-25T07:23:37;0.00;99.90
29547;DHT22;40782;47.264;11.330;2023-11-25T07:26:03;0.00;99.90
29547;DHT22;40782;47.264;11.330;2023-11-25T07:28:31;0.10;99.90
29547;DHT22;40782;47.264;11.330;2023-11-25T07:30:58;0.20;99.90
29547;DHT22;40782;47.264;11.330;2023-11-25T07:33:25;0.20;99.90
29547;DHT22;40782;47.264;11.330;2023-11-25T07:35:53;0.30;99.90
29547;DHT22;40782;47.264;11.330;2023-11-25T07:38:21;0.20;99.90
29547;DHT22;40782;47.264;11.330;2023-11-25T07:40:48;0.30;99.90
29547;DHT22;40782;47.264;11.330;2023-11-25T07:43:16;0.30;99.90
29547;DHT22;40782;47.264;11.330;2023-11-25T07:45:42;0.30;99.90
29547;DHT22;40782;47.264;11.330;2023-11-25T07:48:09;0.30;99.90
29547;DHT22;40782;47.264;11.330;2023-11-25T07:50:36;0.20;99.90
29547;DHT22;40782;47.264;11.330;2023-11-25T07:53:07;0.10;99.90
29547;DHT22;40782;47.264;11.330;2023-11-25T07:55:35;0.10;99.90
29547;DHT22;40782;47.264;11.330;2023-11-25T07:58:02;0.00;99.90
29547;DHT22;40782;47.264;11.330;2023-11-25T08:00:30;0.10;99.90
29547;DHT22;40782;47.264;11.330;2023-11-25T08:02:57;0.10;99.90
29547;DHT22;40782;47.264;11.330;2023-11-25T08:05:24;0.20;99.90
29547;DHT22;40782;47.264;11.330;2023-11-25T08:07:51;0.20;99.90
29547;DHT22;40782;47.264;11.330;2023-11-25T08:10:21;0.20;99.90
29547;DHT22;40782;47.264;11.330;2023-11-25T08:12:48;0.20;99.90
29547;DHT22;40782;47.264;11.330;2023-11-25T08:15:15;0.20;99.90
29547;DHT22;40782;47.264;11.330;2023-11-25T08:17:42;0.20;99.90
29547;DHT22;40782;47.264;11.330;2023-11-25T08:20:10;0.10;99.90
29547;DHT22;40782;47.264;11.330;2023-11-25T08:22:38;0.20;99.90
29547;DHT22;40782;47.264;11.330;2023-11-25T08:25:05;0.30;99.90
29547;DHT22;40782;47.264;11.330;2023-11-25T08:27:35;0.40;99.90
29547;DHT22;40782;47.264;11.330;2023-11-25T08:30:02;0.40;99.90
29547;DHT22;40782;47.264;11.330;2023-11-25T08:32:32;0.50;99.90
29547;DHT22;40782;47.264;11.330;2023-11-25T08:34:59;0.70;99.90
29547;DHT22;40782;47.264;11.330;2023-11-25T08:37:26;0.70;99.90
29547;DHT22;40782;47.264;11.330;2023-11-25T08:39:53;0.80;99.90
29547;DHT22;40782;47.264;11.330;2023-11-25T08:42:20;0.70;99.90
29547;DHT22;40782;47.264;11.330;2023-11-25T08:44:51;0.70;99.90
29547;DHT22;40782;47.264;11.330;2023-11-25T08:47:18;0.70;99.90
29547;DHT22;40782;47.264;11.330;2023-11-25T08:49:45;0.80;99.90
29547;DHT22;40782;47.264;11.330;2023-11-25T08:52:14;0.90;99.90
29547;DHT22;40782;47.264;11.330;2023-11-25T08:54:40;0.90;99.90
29547;DHT22;40782;47.264;11.330;2023-11-25T08:57:08;1.00;99.90
29547;DHT22;40782;47.264;11.330;2023-11-25T08:59:35;1.10;99.90
29547;DHT22;40782;47.264;11.330;2023-11-25T09:02:03;1.20;99.90
29547;DHT22;40782;47.264;11.330;2023-11-25T09:04:31;1.10;99.90
29547;DHT22;40782;47.264;11.330;2023-11-25T09:07:01;1.10;99.90
29547;DHT22;40782;47.264;11.330;2023-11-25T09:09:27;1.20;99.90
29547;DHT22;40782;47.264;11.330;2023-11-25T09:11:54;1.30;99.90
29547;DHT22;40782;47.264;11.330;2023-11-25T09:14:21;1.50;99.90
29547;DHT22;40782;47.264;11.330;2023-11-25T09:16:48;1.60;99.90
29547;DHT22;40782;47.264;11.330;2023-11-25T09:19:17;1.70;99.90
29547;DHT22;40782;47.264;11.330;2023-11-25T09:21:44;1.70;99.90
29547;DHT22;40782;47.264;11.330;2023-11-25T09:24:11;1.70;99.90
29547;DHT22;40782;47.264;11.330;2023-11-25T09:26:38;1.70;99.90
29547;DHT22;40782;47.264;11.330;2023-11-25T09:29:05;1.90;99.90
29547;DHT22;40782;47.264;11.330;2023-11-25T09:31:32;2.00;99.90
29547;DHT22;40782;47.264;11.330;2023-11-25T09:33:59;2.10;99.90
29547;DHT22;40782;47.264;11.330;2023-11-25T09:36:29;2.30;99.90
29547;DHT22;40782;47.264;11.330;2023-11-25T09:38:56;2.40;99.90
29547;DHT22;40782;47.264;11.330;2023-11-25T09:41:23;2.60;99.90
29547;DHT22;40782;47.264;11.330;2023-11-25T09:43:51;2.80;99.90
29547;DHT22;40782;47.264;11.330;2023-11-25T09:46:18;2.80;99.90
29547;DHT22;40782;47.264;11.330;2023-11-25T09:48:45;3.00;99.90
29547;DHT22;40782;47.264;11.330;2023-11-25T09:51:12;3.10;99.90
29547;DHT22;40782;47.264;11.330;2023-11-25T09:53:41;3.20;99.90
29547;DHT22;40782;47.264;11.330;2023-11-25T09:56:08;3.10;99.90
29547;DHT22;40782;47.264;11.330;2023-11-25T09:58:37;3.00;99.90
29547;DHT22;40782;47.264;11.330;2023-11-25T10:01:04;3.10;99.90
29547;DHT22;40782;47.264;11.330;2023-11-25T10:03:32;3.20;99.90
29547;DHT22;40782;47.264;11.330;2023-11-25T10:05:59;3.20;99.90
29547;DHT22;40782;47.264;11.330;2023-11-25T10:08:26;3.10;99.90
29547;DHT22;40782;47.264;11.330;2023-11-25T10:10:59;3.10;99.90
29547;DHT22;40782;47.264;11.330;2023-11-25T10:13:30;3.20;99.90
29547;DHT22;40782;47.264;11.330;2023-11-25T10:15:57;3.30;99.90
29547;DHT22;40782;47.264;11.330;2023-11-25T10:18:24;3.40;99.90
29547;DHT22;40782;47.264;11.330;2023-11-25T10:20:51;3.30;97.00
29547;DHT22;40782;47.264;11.330;2023-11-25T10:23:23;3.20;96.90
29547;DHT22;40782;47.264;11.330;2023-11-25T10:25:50;3.20;96.60
29547;DHT22;40782;47.264;11.330;2023-11-25T10:28:20;3.30;93.90
29547;DHT22;40782;47.264;11.330;2023-11-25T10:30:53;3.30;93.90
29547;DHT22;40782;47.264;11.330;2023-11-25T10:33:21;3.10;94.50
29547;DHT22;40782;47.264;11.330;2023-11-25T10:35:48;3.30;95.40
29547;DHT22;40782;47.264;11.330;2023-11-25T10:38:15;3.40;93.90
29547;DHT22;40782;47.264;11.330;2023-11-25T10:40:42;3.30;92.80
29547;DHT22;40782;47.264;11.330;2023-11-25T10:43:09;3.30;93.00
29547;DHT22;40782;47.264;11.330;2023-11-25T10:45:37;3.50;92.10
29547;DHT22;40782;47.264;11.330;2023-11-25T10:48:04;3.50;92.80
29547;DHT22;40782;47.264;11.330;2023-11-25T10:50:32;3.50;93.20
29547;DHT22;40782;47.264;11.330;2023-11-25T10:52:59;3.40;91.90
29547;DHT22;40782;47.264;11.330;2023-11-25T10:55:31;3.50;92.50
29547;DHT22;40782;47.264;11.330;2023-11-25T10:57:58;3.70;92.70
29547;DHT22;40782;47.264;11.330;2023-11-25T11:00:27;4.10;92.70
29547;DHT22;40782;47.264;11.330;2023-11-25T11:02:56;4.20;91.30
29547;DHT22;40782;47.264;11.330;2023-11-25T11:05:24;4.30;90.10
29547;DHT22;40782;47.264;11.330;2023-11-25T11:08:00;4.30;89.60
29547;DHT22;40782;47.264;11.330;2023-11-25T11:10:33;4.10;87.90
29547;DHT22;40782;47.264;11.330;2023-11-25T11:13:04;4.10;89.20
29547;DHT22;40782;47.264;11.330;2023-11-25T11:15:34;4.00;88.90
29547;DHT22;40782;47.264;11.330;2023-11-25T11:18:06;4.00;86.90
29547;DHT22;40782;47.264;11.330;2023-11-25T11:20:41;4.10;90.00
29547;DHT22;40782;47.264;11.330;2023-11-25T11:23:08;4.40;89.30
29547;DHT22;40782;47.264;11.330;2023-11-25T11:25:35;4.40;87.60
29547;DHT22;40782;47.264;11.330;2023-11-25T11:28:06;4.60;87.90
29547;DHT22;40782;47.264;11.330;2023-11-25T11:30:38;4.40;85.00
29547;DHT22;40782;47.264;11.330;2023-11-25T11:33:10;4.20;85.60
29547;DHT22;40782;47.264;11.330;2023-11-25T11:35:40;4.10;85.00
29547;DHT22;40782;47.264;11.330;2023-11-25T11:38:24;4.00;85.90
29547;DHT22;40782;47.264;11.330;2023-11-25T11:40:52;3.80;85.20
29547;DHT22;40782;47.264;11.330;2023-11-25T11:43:19;3.90;80.40
29547;DHT22;40782;47.264;11.330;2023-11-25T11:45:47;3.80;80.70
29547;DHT22;40782;47.264;11.330;2023-11-25T11:48:15;3.60;80.40
29547;DHT22;40782;47.264;11.330;2023-11-25T11:50:43;3.80;81.20
29547;DHT22;40782;47.264;11.330;2023-11-25T11:53:12;3.90;82.60
29547;DHT22;40782;47.264;11.330;2023-11-25T11:55:40;3.80;79.90
29547;DHT22;40782;47.264;11.330;2023-11-25T11:58:08;3.70;81.40
29547;DHT22;40782;47.264;11.330;2023-11-25T12:00:35;3.80;81.90
29547;DHT22;40782;47.264;11.330;2023-11-25T12:03:01;4.10;79.80
29547;DHT22;40782;47.264;11.330;2023-11-25T12:05:30;4.40;79.80
29547;DHT22;40782;47.264;11.330;2023-11-25T12:07:58;4.40;80.60
29547;DHT22;40782;47.264;11.330;2023-11-25T12:10:25;4.30;82.20
29547;DHT22;40782;47.264;11.330;2023-11-25T12:12:52;3.90;81.80
29547;DHT22;40782;47.264;11.330;2023-11-25T12:15:19;3.70;81.70
29547;DHT22;40782;47.264;11.330;2023-11-25T12:17:46;3.60;80.50
29547;DHT22;40782;47.264;11.330;2023-11-25T12:20:13;3.60;81.70
29547;DHT22;40782;47.264;11.330;2023-11-25T12:22:42;3.50;80.80
29547;DHT22;40782;47.264;11.330;2023-11-25T12:25:09;3.50;80.90
29547;DHT22;40782;47.264;11.330;2023-11-25T12:27:44;3.40;80.80
29547;DHT22;40782;47.264;11.330;2023-11-25T12:30:13;3.40;82.20
29547;DHT22;40782;47.264;11.330;2023-11-25T12:32:42;3.30;81.50
29547;DHT22;40782;47.264;11.330;2023-11-25T12:35:09;3.10;83.90
29547;DHT22;40782;47.264;11.330;2023-11-25T12:37:39;3.00;85.10
29547;DHT22;40782;47.264;11.330;2023-11-25T12:40:15;3.10;86.10
29547;DHT22;40782;47.264;11.330;2023-11-25T12:42:44;3.00;85.10
29547;DHT22;40782;47.264;11.330;2023-11-25T12:45:10;3.00;86.10
29547;DHT22;40782;47.264;11.330;2023-11-25T12:47:46;2.90;87.30
29547;DHT22;40782;47.264;11.330;2023-11-25T12:50:15;2.90;88.20
29547;DHT22;40782;47.264;11.330;2023-11-25T12:52:44;3.10;88.00
29547;DHT22;40782;47.264;11.330;2023-11-25T12:55:11;3.00;90.30
29547;DHT22;40782;47.264;11.330;2023-11-25T12:57:39;3.00;91.10
29547;DHT22;40782;47.264;11.330;2023-11-25T13:00:06;2.80;90.90
29547;DHT22;40782;47.264;11.330;2023-11-25T13:02:34;2.50;91.60
29547;DHT22;40782;47.264;11.330;2023-11-25T13:05:03;2.30;92.10
29547;DHT22;40782;47.264;11.330;2023-11-25T13:07:30;2.20;92.00
29547;DHT22;40782;47.264;11.330;2023-11-25T13:09:58;2.20;91.60
29547;DHT22;40782;47.264;11.330;2023-11-25T13:12:27;2.30;92.30
29547;DHT22;40782;47.264;11.330;2023-11-25T13:14:55;2.30;93.10
29547;DHT22;40782;47.264;11.330;2023-11-25T13:17:22;2.20;93.20
29547;DHT22;40782;47.264;11.330;2023-11-25T13:19:50;2.30;91.40
29547;DHT22;40782;47.264;11.330;2023-11-25T13:22:18;2.30;91.60
29547;DHT22;40782;47.264;11.330;2023-11-25T13:24:45;2.30;90.10
29547;DHT22;40782;47.264;11.330;2023-11-25T13:27:12;2.40;89.00
29547;DHT22;40782;47.264;11.330;2023-11-25T13:29:39;2.50;89.10
29547;DHT22;40782;47.264;11.330;2023-11-25T13:32:08;2.40;87.80
29547;DHT22;40782;47.264;11.330;2023-11-25T13:34:38;2.30;89.40
29547;DHT22;40782;47.264;11.330;2023-11-25T13:37:05;2.40;89.00
29547;DHT22;40782;47.264;11.330;2023-11-25T13:39:33;2.30;90.10
29547;DHT22;40782;47.264;11.330;2023-11-25T13:42:00;2.30;90.70
29547;DHT22;40782;47.264;11.330;2023-11-25T13:44:26;2.20;90.50
29547;DHT22;40782;47.264;11.330;2023-11-25T13:46:53;2.20;90.40
29547;DHT22;40782;47.264;11.330;2023-11-25T13:49:22;2.30;92.10
29547;DHT22;40782;47.264;11.330;2023-11-25T13:51:54;2.40;90.10
29547;DHT22;40782;47.264;11.330;2023-11-25T13:54:21;2.40;90.10
29547;DHT22;40782;47.264;11.330;2023-11-25T13:56:50;2.40;90.10
29547;DHT22;40782;47.264;11.330;2023-11-25T13:59:17;2.50;86.80
29547;DHT22;40782;47.264;11.330;2023-11-25T14:01:44;2.50;86.90
29547;DHT22;40782;47.264;11.330;2023-11-25T14:04:12;2.40;86.90
29547;DHT22;40782;47.264;11.330;2023-11-25T14:06:40;2.50;87.50
29547;DHT22;40782;47.264;11.330;2023-11-25T14:09:08;2.60;88.10
29547;DHT22;40782;47.264;11.330;2023-11-25T14:11:42;2.50;86.30
29547;DHT22;40782;47.264;11.330;2023-11-25T14:14:09;2.50;88.60
29547;DHT22;40782;47.264;11.330;2023-11-25T14:16:37;2.40;89.20
29547;DHT22;40782;47.264;11.330;2023-11-25T14:19:04;2.40;88.60
29547;DHT22;40782;47.264;11.330;2023-11-25T14:21:31;2.40;88.60
29547;DHT22;40782;47.264;11.330;2023-11-25T14:23:59;2.30;89.80
29547;DHT22;40782;47.264;11.330;2023-11-25T14:26:26;2.30;90.60
29547;DHT22;40782;47.264;11.330;2023-11-25T14:28:53;2.30;90.10
29547;DHT22;40782;47.264;11.330;2023-11-25T14:31:20;2.30;88.30
29547;DHT22;40782;47.264;11.330;2023-11-25T14:33:47;2.30;87.90
29547;DHT22;40782;47.264;11.330;2023-11-25T14:36:14;2.20;90.30
29547;DHT22;40782;47.264;11.330;2023-11-25T14:38:41;2.20;90.30
29547;DHT22;40782;47.264;11.330;2023-11-25T14:41:09;2.20;91.10
29547;DHT22;40782;47.264;11.330;2023-11-25T14:43:36;2.20;90.50
29547;DHT22;40782;47.264;11.330;2023-11-25T14:46:04;2.20;90.50
29547;DHT22;40782;47.264;11.330;2023-11-25T14:48:31;2.20;90.70
29547;DHT22;40782;47.264;11.330;2023-11-25T14:50:58;2.20;90.40
29547;DHT22;40782;47.264;11.330;2023-11-25T14:53:25;2.20;91.40
29547;DHT22;40782;47.264;11.330;2023-11-25T14:55:52;2.10;92.10
29547;DHT22;40782;47.264;11.330;2023-11-25T14:58:20;2.10;92.30
29547;DHT22;40782;47.264;11.330;2023-11-25T15:00:48;2.00;93.00
29547;DHT22;40782;47.264;11.330;2023-11-25T15:03:17;2.00;93.10
29547;DHT22;40782;47.264;11.330;2023-11-25T15:05:44;2.00;92.70
29547;DHT22;40782;47.264;11.330;2023-11-25T15:08:11;1.90;93.10
29547;DHT22;40782;47.264;11.330;2023-11-25T15:10:38;1.90;93.60
29547;DHT22;40782;47.264;11.330;2023-11-25T15:13:06;1.90;92.80
29547;DHT22;40782;47.264;11.330;2023-11-25T15:15:35;1.90;92.80
29547;DHT22;40782;47.264;11.330;2023-11-25T15:18:02;1.90;92.50
29547;DHT22;40782;47.264;11.330;2023-11-25T15:20:30;1.90;92.70
29547;DHT22;40782;47.264;11.330;2023-11-25T15:22:57;1.90;93.00
29547;DHT22;40782;47.264;11.330;2023-11-25T15:25:25;1.90;93.00
29547;DHT22;40782;47.264;11.330;2023-11-25T15:27:52;1.90;93.60
29547;DHT22;40782;47.264;11.330;2023-11-25T15:30:20;1.90;92.40
29547;DHT22;40782;47.264;11.330;2023-11-25T15:32:49;1.90;92.80
29547;DHT22;40782;47.264;11.330;2023-11-25T15:35:17;1.90;93.90